sensor_id;sensor_type;location;lat;lon;timestamp;pressure;altitude;pressure_sealevel;temperature;humidity
64292;BME280;50628;51.008;13.658;2023-10-19T00:02:39;98416.09;;;8.29;100.00
64292;BME280;50628;51.008;13.658;2023-10-19T00:07:42;98405.72;;;8.29;100.00
64292;BME280;50628;51.008;13.658;2023-10-19T00:12:44;98405.47;;;8.32;100.00
64292;BME280;50628;51.008;13.658;2023-10-19T00:17:53;98404.38;;;8.34;100.00
64292;BME280;50628;51.008;13.658;2023-10-19T00:22:56;98394.41;;;8.30;100.00
64292;BME280;50628;51.008;13.658;2023-10-19T00:27:58;98393.16;;;8.34;100.00
64292;BME280;50628;51.008;13.658;2023-10-19T00:33:04;98384.03;;;8.30;100.00
64292;BME280;50628;51.008;13.658;2023-10-19T00:38:18;98382.34;;;8.38;100.00
64292;BME280;50628;51.008;13.658;2023-10-19T00:43:28;98364.75;;;8.52;100.00
64292;BME280;50628;51.008;13.658;2023-10-19T00:48:34;98364.28;;;8.56;100.00
64292;BME280;50628;51.008;13.658;2023-10-19T00:53:37;98359.41;;;8.53;100.00
64292;BME280;50628;51.008;13.658;2023-10-19T00:58:40;98349.69;;;8.55;100.00
64292;BME280;50628;51.008;13.658;2023-10-19T01:03:42;98334.06;;;8.47;100.00
64292;BME280;50628;51.008;13.658;2023-10-19T01:08:46;98336.94;;;8.07;100.00
64292;BME280;50628;51.008;13.658;2023-10-19T01:13:51;98334.66;;;7.94;100.00
64292;BME280;50628;51.008;13.658;2023-10-19T01:18:53;98327.09;;;7.63;100.00
64292;BME280;50628;51.008;13.658;2023-10-19T01:23:56;98318.81;;;7.40;100.00
64292;BME280;50628;51.008;13.658;2023-10-19T01:28:59;98326.47;;;7.12;100.00
64292;BME280;50628;51.008;13.658;2023-10-19T01:34:02;98321.16;;;7.24;100.00
64292;BME280;50628;51.008;13.658;2023-10-19T01:39:07;98319.50;;;7.13;100.00
64292;BME280;50628;51.008;13.658;2023-10-19T01:44:12;98308.22;;;7.14;100.00
64292;BME280;50628;51.008;13.658;2023-10-19T01:49:16;98297.06;;;7.23;100.00
64292;BME280;50628;51.008;13.658;2023-10-19T01:54:27;98284.53;;;7.19;100.00
64292;BME280;50628;51.008;13.658;2023-10-19T01:59:29;98281.78;;;7.20;100.00
64292;BME280;50628;51.008;13.658;2023-10-19T02:04:33;98279.91;;;7.12;100.00
64292;BME280;50628;51.008;13.658;2023-10-19T02:09:37;98265.47;;;7.10;100.00
64292;BME280;50628;51.008;13.658;2023-10-19T02:14:39;98257.69;;;7.10;100.00
64292;BME280;50628;51.008;13.658;2023-10-19T02:19:42;98240.69;;;7.07;100.00
64292;BME280;50628;51.008;13.658;2023-10-19T02:24:45;98239.47;;;7.11;100.00
64292;BME280;50628;51.008;13.658;2023-10-19T02:29:48;98227.44;;;7.20;100.00
64292;BME280;50628;51.008;13.658;2023-10-19T02:34:51;98226.13;;;7.16;100.00
64292;BME280;50628;51.008;13.658;2023-10-19T02:39:54;98197.25;;;7.11;100.00
64292;BME280;50628;51.008;13.658;2023-10-19T02:44:56;98174.91;;;7.10;100.00
64292;BME280;50628;51.008;13.658;2023-10-19T02:50:00;98156.06;;;7.27;100.00
64292;BME280;50628;51.008;13.658;2023-10-19T02:55:12;98163.88;;;7.55;100.00
64292;BME280;50628;51.008;13.658;2023-10-19T03:00:17;98161.53;;;7.62;100.00
64292;BME280;50628;51.008;13.658;2023-10-19T03:05:21;98155.47;;;7.71;100.00
64292;BME280;50628;51.008;13.658;2023-10-19T03:10:27;98150.00;;;8.01;100.00
64292;BME280;50628;51.008;13.658;2023-10-19T03:15:42;98145.56;;;8.12;100.00
64292;BME280;50628;51.008;13.658;2023-10-19T03:20:44;98163.03;;;8.10;100.00
64292;BME280;50628;51.008;13.658;2023-10-19T03:25:53;98155.81;;;8.03;100.00
64292;BME280;50628;51.008;13.658;2023-10-19T03:31:15;98159.75;;;7.90;100.00
64292;BME280;50628;51.008;13.658;2023-10-19T03:36:19;98174.47;;;7.62;100.00
64292;BME280;50628;51.008;13.658;2023-10-19T03:41:23;98170.47;;;7.40;100.00
64292;BME280;50628;51.008;13.658;2023-10-19T03:46:27;98172.66;;;7.34;100.00
64292;BME280;50628;51.008;13.658;2023-10-19T03:51:31;98176.00;;;7.17;100.00
64292;BME280;50628;51.008;13.658;2023-10-19T03:56:42;98165.22;;;7.22;100.00
64292;BME280;50628;51.008;13.658;2023-10-19T04:01:44;98177.91;;;7.15;100.00
64292;BME280;50628;51.008;13.658;2023-10-19T04:06:46;98181.53;;;7.32;100.00
64292;BME280;50628;51.008;13.658;2023-10-19T04:11:51;98176.78;;;7.27;100.00
64292;BME280;50628;51.008;13.658;2023-10-19T04:16:53;98153.78;;;7.24;100.00
64292;BME280;50628;51.008;13.658;2023-10-19T04:21:56;98160.34;;;7.19;100.00
64292;BME280;50628;51.008;13.658;2023-10-19T04:26:59;98140.44;;;7.19;100.00
64292;BME280;50628;51.008;13.658;2023-10-19T04:32:02;98150.53;;;7.12;100.00
64292;BME280;50628;51.008;13.658;2023-10-19T04:37:07;98143.94;;;6.90;100.00
64292;BME280;50628;51.008;13.658;2023-10-19T04:42:14;98158.06;;;7.06;100.00
64292;BME280;50628;51.008;13.658;2023-10-19T04:47:16;98153.72;;;6.97;100.00
64292;BME280;50628;51.008;13.658;2023-10-19T04:52:18;98145.84;;;6.79;100.00
64292;BME280;50628;51.008;13.658;2023-10-19T04:57:21;98143.69;;;6.74;100.00
64292;BME280;50628;51.008;13.658;2023-10-19T05:02:23;98141.09;;;6.84;100.00
64292;BME280;50628;51.008;13.658;2023-10-19T05:07:25;98136.19;;;6.90;100.00
64292;BME280;50628;51.008;13.658;2023-10-19T05:12:28;98135.59;;;6.97;100.00
64292;BME280;50628;51.008;13.658;2023-10-19T05:17:30;98125.91;;;7.08;100.00
64292;BME280;50628;51.008;13.658;2023-10-19T05:22:32;98122.38;;;7.00;100.00
64292;BME280;50628;51.008;13.658;2023-10-19T05:27:37;98107.94;;;7.07;100.00
64292;BME280;50628;51.008;13.658;2023-10-19T05:32:39;98113.69;;;7.01;100.00
64292;BME280;50628;51.008;13.658;2023-10-19T05:37:41;98109.66;;;6.79;100.00
64292;BME280;50628;51.008;13.658;2023-10-19T05:42:44;98122.00;;;6.85;100.00
64292;BME280;50628;51.008;13.658;2023-10-19T05:47:47;98107.59;;;6.72;100.00
64292;BME280;50628;51.008;13.658;2023-10-19T05:52:49;98105.72;;;6.75;100.00
64292;BME280;50628;51.008;13.658;2023-10-19T05:57:53;98106.38;;;6.77;100.00
64292;BME280;50628;51.008;13.658;2023-10-19T06:02:55;98111.44;;;6.78;100.00
64292;BME280;50628;51.008;13.658;2023-10-19T06:07:58;98109.75;;;6.87;100.00
64292;BME280;50628;51.008;13.658;2023-10-19T06:13:01;98113.31;;;6.86;100.00
64292;BME280;50628;51.008;13.658;2023-10-19T06:18:04;98126.34;;;6.94;100.00
64292;BME280;50628;51.008;13.658;2023-10-19T06:23:06;98126.88;;;6.98;100.00
64292;BME280;50628;51.008;13.658;2023-10-19T06:28:10;98134.63;;;6.98;100.00
64292;BME280;50628;51.008;13.658;2023-10-19T06:33:12;98133.41;;;7.02;100.00
64292;BME280;50628;51.008;13.658;2023-10-19T06:38:13;98131.44;;;7.23;100.00
64292;BME280;50628;51.008;13.658;2023-10-19T06:43:17;98127.81;;;7.06;100.00
64292;BME280;50628;51.008;13.658;2023-10-19T06:48:20;98129.31;;;7.09;100.00
64292;BME280;50628;51.008;13.658;2023-10-19T06:53:22;98123.31;;;7.08;100.00
64292;BME280;50628;51.008;13.658;2023-10-19T06:58:26;98116.19;;;7.20;100.00
64292;BME280;50628;51.008;13.658;2023-10-19T07:03:27;98119.78;;;7.09;100.00
64292;BME280;50628;51.008;13.658;2023-10-19T07:08:29;98125.22;;;7.16;100.00
64292;BME280;50628;51.008;13.658;2023-10-19T07:13:33;98108.75;;;7.07;100.00
64292;BME280;50628;51.008;13.658;2023-10-19T07:18:34;98103.56;;;7.07;100.00
64292;BME280;50628;51.008;13.658;2023-10-19T07:23:37;98101.28;;;7.04;100.00
64292;BME280;50628;51.008;13.658;2023-10-19T07:28:42;98109.84;;;7.05;100.00
64292;BME280;50628;51.008;13.658;2023-10-19T07:33:44;98098.81;;;7.03;100.00
64292;BME280;50628;51.008;13.658;2023-10-19T07:38:47;98110.53;;;7.07;100.00
64292;BME280;50628;51.008;13.658;2023-10-19T07:43:51;98104.59;;;7.24;100.00
64292;BME280;50628;51.008;13.658;2023-10-19T07:48:53;98120.00;;;7.26;100.00
64292;BME280;50628;51.008;13.658;2023-10-19T07:53:55;98120.09;;;7.34;100.00
64292;BME280;50628;51.008;13.658;2023-10-19T07:58:58;98117.56;;;7.14;100.00
64292;BME280;50628;51.008;13.658;2023-10-19T08:04:00;98113.53;;;7.40;100.00
64292;BME280;50628;51.008;13.658;2023-10-19T08:09:02;98108.16;;;7.51;100.00
64292;BME280;50628;51.008;13.658;2023-10-19T08:14:06;98096.59;;;7.45;100.00
64292;BME280;50628;51.008;13.658;2023-10-19T08:19:09;98100.50;;;7.59;100.00
64292;BME280;50628;51.008;13.658;2023-10-19T08:24:12;98090.03;;;7.51;100.00
64292;BME280;50628;51.008;13.658;2023-10-19T08:29:19;98087.31;;;7.70;100.00
64292;BME280;50628;51.008;13.658;2023-10-19T08:34:21;98079.25;;;7.55;100.00
64292;BME280;50628;51.008;13.658;2023-10-19T08:39:26;98075.66;;;7.84;100.00
64292;BME280;50628;51.008;13.658;2023-10-19T08:44:29;98061.97;;;7.74;100.00
64292;BME280;50628;51.008;13.658;2023-10-19T08:49:31;98064.09;;;7.78;100.00
64292;BME280;50628;51.008;13.658;2023-10-19T08:54:33;98069.94;;;7.63;100.00
64292;BME280;50628;51.008;13.658;2023-10-19T08:59:36;98048.84;;;7.57;100.00
64292;BME280;50628;51.008;13.658;2023-10-19T09:04:42;98056.56;;;7.85;100.00
64292;BME280;50628;51.008;13.658;2023-10-19T09:09:45;98048.78;;;7.85;100.00
64292;BME280;50628;51.008;13.658;2023-10-19T09:14:49;98032.66;;;7.73;100.00
64292;BME280;50628;51.008;13.658;2023-10-19T09:19:51;98042.06;;;7.92;100.00
64292;BME280;50628;51.008;13.658;2023-10-19T09:24:55;98035.84;;;7.85;100.00
64292;BME280;50628;51.008;13.658;2023-10-19T09:29:58;98030.88;;;8.10;100.00
64292;BME280;50628;51.008;13.658;2023-10-19T09:35:00;98033.50;;;8.36;100.00
64292;BME280;50628;51.008;13.658;2023-10-19T09:40:05;98024.41;;;8.50;100.00
64292;BME280;50628;51.008;13.658;2023-10-19T09:45:16;98027.03;;;8.58;100.00
64292;BME280;50628;51.008;13.658;2023-10-19T09:50:20;98032.94;;;8.42;100.00
64292;BME280;50628;51.008;13.658;2023-10-19T09:55:25;98021.44;;;8.71;100.00
64292;BME280;50628;51.008;13.658;2023-10-19T10:00:31;98020.78;;;8.77;100.00
64292;BME280;50628;51.008;13.658;2023-10-19T10:05:47;98025.25;;;8.84;100.00
64292;BME280;50628;51.008;13.658;2023-10-19T10:10:50;98017.75;;;8.81;100.00
64292;BME280;50628;51.008;13.658;2023-10-19T10:15:55;98008.41;;;8.97;100.00
64292;BME280;50628;51.008;13.658;2023-10-19T10:21:05;98000.13;;;8.93;100.00
64292;BME280;50628;51.008;13.658;2023-10-19T10:26:10;97986.69;;;8.98;100.00
64292;BME280;50628;51.008;13.658;2023-10-19T10:31:19;97982.19;;;9.08;100.00
64292;BME280;50628;51.008;13.658;2023-10-19T10:36:22;97970.41;;;9.30;100.00
64292;BME280;50628;51.008;13.658;2023-10-19T10:41:25;97958.91;;;9.32;100.00
64292;BME280;50628;51.008;13.658;2023-10-19T10:46:30;97956.31;;;9.49;100.00
64292;BME280;50628;51.008;13.658;2023-10-19T10:51:32;97944.66;;;9.61;100.00
64292;BME280;50628;51.008;13.658;2023-10-19T10:56:40;97940.91;;;9.80;100.00
64292;BME280;50628;51.008;13.658;2023-10-19T11:01:43;97936.06;;;9.85;100.00
64292;BME280;50628;51.008;13.658;2023-10-19T11:06:49;97926.94;;;9.89;100.00
64292;BME280;50628;51.008;13.658;2023-10-19T11:11:51;97924.63;;;10.03;100.00
64292;BME280;50628;51.008;13.658;2023-10-19T11:17:11;97925.78;;;10.00;100.00
64292;BME280;50628;51.008;13.658;2023-10-19T11:22:14;97914.88;;;10.21;100.00
64292;BME280;50628;51.008;13.658;2023-10-19T11:27:22;97908.38;;;10.17;100.00
64292;BME280;50628;51.008;13.658;2023-10-19T11:32:36;97911.28;;;10.22;100.00
64292;BME280;50628;51.008;13.658;2023-10-19T11:37:48;97910.81;;;10.18;100.00
64292;BME280;50628;51.008;13.658;2023-10-19T11:42:51;97925.13;;;10.14;100.00
64292;BME280;50628;51.008;13.658;2023-10-19T11:47:54;97908.19;;;10.27;100.00
64292;BME280;50628;51.008;13.658;2023-10-19T11:52:57;97900.91;;;10.14;100.00
64292;BME280;50628;51.008;13.658;2023-10-19T11:57:59;97903.66;;;10.12;100.00
64292;BME280;50628;51.008;13.658;2023-10-19T12:03:02;97903.84;;;10.19;100.00
64292;BME280;50628;51.008;13.658;2023-10-19T12:08:05;97904.63;;;10.19;100.00
64292;BME280;50628;51.008;13.658;2023-10-19T12:13:07;97910.63;;;10.20;100.00
64292;BME280;50628;51.008;13.658;2023-10-19T12:18:11;97901.69;;;10.23;100.00
64292;BME280;50628;51.008;13.658;2023-10-19T12:23:14;97891.78;;;10.26;100.00
64292;BME280;50628;51.008;13.658;2023-10-19T12:28:16;97889.03;;;10.19;100.00
64292;BME280;50628;51.008;13.658;2023-10-19T12:33:20;97876.22;;;10.18;100.00
64292;BME280;50628;51.008;13.658;2023-10-19T12:38:21;97875.53;;;10.24;100.00
64292;BME280;50628;51.008;13.658;2023-10-19T12:43:23;97883.69;;;10.13;100.00
64292;BME280;50628;51.008;13.658;2023-10-19T12:48:27;97881.81;;;9.90;100.00
64292;BME280;50628;51.008;13.658;2023-10-19T12:53:33;97875.09;;;10.04;100.00
64292;BME280;50628;51.008;13.658;2023-10-19T12:58:37;97864.34;;;10.24;100.00
64292;BME280;50628;51.008;13.658;2023-10-19T13:03:40;97860.09;;;10.23;100.00
64292;BME280;50628;51.008;13.658;2023-10-19T13:08:45;97863.69;;;10.30;100.00
64292;BME280;50628;51.008;13.658;2023-10-19T13:13:47;97843.00;;;10.45;100.00
64292;BME280;50628;51.008;13.658;2023-10-19T13:18:51;97838.75;;;10.52;100.00
64292;BME280;50628;51.008;13.658;2023-10-19T13:23:53;97824.69;;;10.92;100.00
64292;BME280;50628;51.008;13.658;2023-10-19T13:28:55;97827.94;;;11.17;100.00
64292;BME280;50628;51.008;13.658;2023-10-19T13:33:58;97820.88;;;11.03;100.00
64292;BME280;50628;51.008;13.658;2023-10-19T13:39:04;97824.13;;;11.43;100.00
64292;BME280;50628;51.008;13.658;2023-10-19T13:44:06;97813.28;;;11.39;100.00
64292;BME280;50628;51.008;13.658;2023-10-19T13:49:10;97806.34;;;12.14;100.00
64292;BME280;50628;51.008;13.658;2023-10-19T13:54:12;97791.88;;;11.97;100.00
64292;BME280;50628;51.008;13.658;2023-10-19T13:59:13;97788.25;;;11.83;100.00
64292;BME280;50628;51.008;13.658;2023-10-19T14:04:17;97797.41;;;11.79;100.00
64292;BME280;50628;51.008;13.658;2023-10-19T14:09:19;97796.50;;;11.42;100.00
64292;BME280;50628;51.008;13.658;2023-10-19T14:14:23;97785.72;;;11.60;100.00
64292;BME280;50628;51.008;13.658;2023-10-19T14:19:27;97789.84;;;11.39;100.00
64292;BME280;50628;51.008;13.658;2023-10-19T14:24:29;97795.03;;;11.39;100.00
64292;BME280;50628;51.008;13.658;2023-10-19T14:29:31;97785.94;;;11.35;100.00
64292;BME280;50628;51.008;13.658;2023-10-19T14:34:34;97797.47;;;11.56;100.00
64292;BME280;50628;51.008;13.658;2023-10-19T14:39:36;97797.13;;;11.21;100.00
64292;BME280;50628;51.008;13.658;2023-10-19T14:44:37;97784.03;;;10.91;100.00
64292;BME280;50628;51.008;13.658;2023-10-19T14:49:41;97785.47;;;10.94;100.00
64292;BME280;50628;51.008;13.658;2023-10-19T14:54:43;97791.06;;;11.05;100.00
64292;BME280;50628;51.008;13.658;2023-10-19T14:59:45;97783.47;;;10.81;100.00
64292;BME280;50628;51.008;13.658;2023-10-19T15:04:49;97780.72;;;10.74;100.00
64292;BME280;50628;51.008;13.658;2023-10-19T15:09:50;97783.63;;;11.02;100.00
64292;BME280;50628;51.008;13.658;2023-10-19T15:14:52;97786.88;;;10.81;100.00
64292;BME280;50628;51.008;13.658;2023-10-19T15:19:56;97779.56;;;10.46;100.00
64292;BME280;50628;51.008;13.658;2023-10-19T15:24:59;97789.09;;;10.61;100.00
64292;BME280;50628;51.008;13.658;2023-10-19T15:30:01;97781.09;;;10.63;100.00
64292;BME280;50628;51.008;13.658;2023-10-19T15:35:05;97779.31;;;10.32;100.00
64292;BME280;50628;51.008;13.658;2023-10-19T15:40:10;97777.31;;;10.43;100.00
64292;BME280;50628;51.008;13.658;2023-10-19T15:45:14;97780.97;;;10.33;100.00
64292;BME280;50628;51.008;13.658;2023-10-19T15:50:20;97781.81;;;10.17;100.00
64292;BME280;50628;51.008;13.658;2023-10-19T15:55:22;97787.72;;;10.03;100.00
64292;BME280;50628;51.008;13.658;2023-10-19T16:00:23;97787.72;;;9.95;100.00
64292;BME280;50628;51.008;13.658;2023-10-19T16:05:27;97779.50;;;9.83;100.00
64292;BME280;50628;51.008;13.658;2023-10-19T16:10:29;97785.72;;;9.66;100.00
64292;BME280;50628;51.008;13.658;2023-10-19T16:15:31;97779.34;;;9.77;100.00
64292;BME280;50628;51.008;13.658;2023-10-19T16:20:34;97776.50;;;9.55;100.00
64292;BME280;50628;51.008;13.658;2023-10-19T16:25:36;97778.94;;;9.40;100.00
64292;BME280;50628;51.008;13.658;2023-10-19T16:30:38;97780.09;;;9.38;100.00
64292;BME280;50628;51.008;13.658;2023-10-19T16:35:41;97787.53;;;9.49;100.00
64292;BME280;50628;51.008;13.658;2023-10-19T16:40:43;97780.38;;;9.51;100.00
64292;BME280;50628;51.008;13.658;2023-10-19T16:45:45;97789.28;;;9.57;100.00
64292;BME280;50628;51.008;13.658;2023-10-19T16:50:48;97771.13;;;9.48;100.00
64292;BME280;50628;51.008;13.658;2023-10-19T16:55:51;97764.50;;;9.38;100.00
64292;BME280;50628;51.008;13.658;2023-10-19T17:00:58;97779.41;;;9.60;100.00
64292;BME280;50628;51.008;13.658;2023-10-19T17:06:01;97764.78;;;9.59;100.00
64292;BME280;50628;51.008;13.658;2023-10-19T17:11:03;97777.59;;;9.61;100.00
64292;BME280;50628;51.008;13.658;2023-10-19T17:16:06;97769.81;;;9.61;100.00
64292;BME280;50628;51.008;13.658;2023-10-19T17:21:09;97766.09;;;9.47;100.00
64292;BME280;50628;51.008;13.658;2023-10-19T17:26:11;97755.72;;;9.55;100.00
64292;BME280;50628;51.008;13.658;2023-10-19T17:31:13;97757.31;;;9.56;100.00
64292;BME280;50628;51.008;13.658;2023-10-19T17:36:16;97762.88;;;9.37;100.00
64292;BME280;50628;51.008;13.658;2023-10-19T17:41:19;97742.59;;;9.40;100.00
64292;BME280;50628;51.008;13.658;2023-10-19T17:46:21;97743.25;;;9.34;100.00
64292;BME280;50628;51.008;13.658;2023-10-19T17:51:24;97750.22;;;9.50;100.00
64292;BME280;50628;51.008;13.658;2023-10-19T17:56:26;97749.06;;;9.52;100.00
64292;BME280;50628;51.008;13.658;2023-10-19T18:01:28;97741.28;;;9.52;100.00
64292;BME280;50628;51.008;13.658;2023-10-19T18:06:31;97721.47;;;9.43;100.00
64292;BME280;50628;51.008;13.658;2023-10-19T18:11:33;97728.78;;;9.48;100.00
64292;BME280;50628;51.008;13.658;2023-10-19T18:16:35;97736.53;;;9.56;100.00
64292;BME280;50628;51.008;13.658;2023-10-19T18:21:38;97725.16;;;9.57;100.00
64292;BME280;50628;51.008;13.658;2023-10-19T18:26:40;97723.44;;;9.41;100.00
64292;BME280;50628;51.008;13.658;2023-10-19T18:31:46;97728.28;;;9.44;100.00
64292;BME280;50628;51.008;13.658;2023-10-19T18:36:49;97719.34;;;9.55;100.00
64292;BME280;50628;51.008;13.658;2023-10-19T18:41:51;97730.56;;;9.39;100.00
64292;BME280;50628;51.008;13.658;2023-10-19T18:46:52;97719.69;;;9.44;100.00
64292;BME280;50628;51.008;13.658;2023-10-19T18:51:56;97709.94;;;9.54;100.00
64292;BME280;50628;51.008;13.658;2023-10-19T18:56:58;97703.78;;;9.47;100.00
64292;BME280;50628;51.008;13.658;2023-10-19T19:02:00;97702.31;;;9.52;100.00
64292;BME280;50628;51.008;13.658;2023-10-19T19:07:04;97705.53;;;9.54;100.00
64292;BME280;50628;51.008;13.658;2023-10-19T19:12:06;97696.47;;;9.42;100.00
64292;BME280;50628;51.008;13.658;2023-10-19T19:17:09;97684.00;;;9.46;100.00
64292;BME280;50628;51.008;13.658;2023-10-19T19:22:12;97674.25;;;9.40;100.00
64292;BME280;50628;51.008;13.658;2023-10-19T19:27:14;97676.03;;;9.39;100.00
64292;BME280;50628;51.008;13.658;2023-10-19T19:32:15;97690.16;;;9.37;100.00
64292;BME280;50628;51.008;13.658;2023-10-19T19:37:19;97669.59;;;9.35;100.00
64292;BME280;50628;51.008;13.658;2023-10-19T19:42:22;97673.31;;;9.32;100.00
64292;BME280;50628;51.008;13.658;2023-10-19T19:47:23;97675.09;;;9.32;100.00
64292;BME280;50628;51.008;13.658;2023-10-19T19:52:27;97642.47;;;9.29;100.00
64292;BME280;50628;51.008;13.658;2023-10-19T19:57:29;97647.38;;;9.32;100.00
64292;BME280;50628;51.008;13.658;2023-10-19T20:02:30;97671.50;;;9.41;100.00
64292;BME280;50628;51.008;13.658;2023-10-19T20:07:34;97678.00;;;9.45;100.00
64292;BME280;50628;51.008;13.658;2023-10-19T20:12:38;97662.22;;;9.47;100.00
64292;BME280;50628;51.008;13.658;2023-10-19T20:17:41;97667.75;;;9.44;100.00
64292;BME280;50628;51.008;13.658;2023-10-19T20:22:45;97673.09;;;9.42;100.00
64292;BME280;50628;51.008;13.658;2023-10-19T20:27:47;97670.19;;;9.37;100.00
64292;BME280;50628;51.008;13.658;2023-10-19T20:32:49;97671.84;;;9.38;100.00
64292;BME280;50628;51.008;13.658;2023-10-19T20:37:53;97669.59;;;9.35;100.00
64292;BME280;50628;51.008;13.658;2023-10-19T20:42:55;97661.63;;;9.37;100.00
64292;BME280;50628;51.008;13.658;2023-10-19T20:47:58;97668.03;;;9.57;100.00
64292;BME280;50628;51.008;13.658;2023-10-19T20:53:03;97661.09;;;9.49;100.00
64292;BME280;50628;51.008;13.658;2023-10-19T20:58:05;97659.81;;;9.37;100.00
64292;BME280;50628;51.008;13.658;2023-10-19T21:03:08;97659.81;;;9.37;100.00
64292;BME280;50628;51.008;13.658;2023-10-19T21:08:11;97652.06;;;9.29;100.00
64292;BME280;50628;51.008;13.658;2023-10-19T21:13:14;97642.03;;;9.26;100.00
64292;BME280;50628;51.008;13.658;2023-10-19T21:18:16;97644.47;;;9.27;100.00
64292;BME280;50628;51.008;13.658;2023-10-19T21:23:19;97653.06;;;9.28;100.00
64292;BME280;50628;51.008;13.658;2023-10-19T21:28:21;97645.03;;;9.46;100.00
64292;BME280;50628;51.008;13.658;2023-10-19T21:33:24;97627.97;;;9.51;100.00
64292;BME280;50628;51.008;13.658;2023-10-19T21:38:27;97621.66;;;9.46;100.00
64292;BME280;50628;51.008;13.658;2023-10-19T21:43:30;97621.03;;;9.44;100.00
64292;BME280;50628;51.008;13.658;2023-10-19T21:48:32;97613.09;;;9.37;100.00
64292;BME280;50628;51.008;13.658;2023-10-19T21:53:35;97628.63;;;9.53;100.00
64292;BME280;50628;51.008;13.658;2023-10-19T21:58:38;97627.22;;;9.43;100.00
64292;BME280;50628;51.008;13.658;2023-10-19T22:03:39;97641.75;;;9.52;100.00
64292;BME280;50628;51.008;13.658;2023-10-19T22:08:43;97638.66;;;9.57;100.00
64292;BME280;50628;51.008;13.658;2023-10-19T22:13:45;97624.88;;;9.56;100.00
64292;BME280;50628;51.008;13.658;2023-10-19T22:18:46;97610.63;;;9.44;100.00
64292;BME280;50628;51.008;13.658;2023-10-19T22:23:52;97606.91;;;9.46;100.00
64292;BME280;50628;51.008;13.658;2023-10-19T22:28:54;97615.00;;;9.51;100.00
64292;BME280;50628;51.008;13.658;2023-10-19T22:33:56;97617.13;;;9.48;100.00
64292;BME280;50628;51.008;13.658;2023-10-19T22:38:59;97613.69;;;9.47;100.00
64292;BME280;50628;51.008;13.658;2023-10-19T22:44:02;97616.28;;;9.56;100.00
64292;BME280;50628;51.008;13.658;2023-10-19T22:49:04;97603.19;;;9.72;100.00
64292;BME280;50628;51.008;13.658;2023-10-19T22:54:07;97600.09;;;9.77;100.00
64292;BME280;50628;51.008;13.658;2023-10-19T22:59:09;97593.47;;;9.35;100.00
64292;BME280;50628;51.008;13.658;2023-10-19T23:04:11;97577.88;;;9.35;100.00
64292;BME280;50628;51.008;13.658;2023-10-19T23:09:14;97584.41;;;9.30;100.00
64292;BME280;50628;51.008;13.658;2023-10-19T23:14:18;97583.72;;;9.37;100.00
64292;BME280;50628;51.008;13.658;2023-10-19T23:19:19;97584.13;;;9.57;100.00
64292;BME280;50628;51.008;13.658;2023-10-19T23:24:25;97585.41;;;9.61;100.00
64292;BME280;50628;51.008;13.658;2023-10-19T23:29:29;97582.31;;;9.65;100.00
64292;BME280;50628;51.008;13.658;2023-10-19T23:34:33;97575.66;;;9.63;100.00
64292;BME280;50628;51.008;13.658;2023-10-19T23:39:36;97579.72;;;9.65;100.00
64292;BME280;50628;51.008;13.658;2023-10-19T23:44:38;97564.97;;;9.58;100.00
64292;BME280;50628;51.008;13.658;2023-10-19T23:49:40;97557.47;;;9.31;100.00
64292;BME280;50628;51.008;13.658;2023-10-19T23:54:43;97561.09;;;9.22;100.00
64292;BME280;50628;51.008;13.658;2023-10-19T23:59:46;97552.78;;;9.27;100.00
